Time;durP1;ratioP1;P1;durP2;ratioP2;P2;SDS_P1;SDS_P2;PMS_P1;PMS_P2;Temp;Humidity;BMP_temperature;BMP_pressure;BME280_temperature;BME280_humidity;BME280_pressure;Samples;Min_cycle;Max_cycle;Signal;HPM_P1;HPM_P2
2022/03/17 00:02:19;;;;;;;383.48;50.95;;;4.80;99.90;;;3.29;100.00;102657.13;4897828;28;20139;-78
2022/03/17 00:04:45;;;;;;;321.20;51.40;;;4.80;99.90;;;3.40;100.00;102647.72;4900119;28;20050;-78
2022/03/17 00:07:12;;;;;;;269.70;49.72;;;4.90;99.90;;;3.37;100.00;102642.47;4910713;28;20035;-78
2022/03/17 00:09:42;;;;;;;276.27;30.63;;;4.80;99.90;;;3.20;100.00;102650.03;4901510;28;20117;-78
2022/03/17 00:12:08;;;;;;;232.20;49.03;;;4.80;99.90;;;3.28;100.00;102644.94;4906792;28;20096;-78
2022/03/17 00:14:36;;;;;;;282.90;47.72;;;4.70;99.90;;;3.23;100.00;102637.06;4883864;28;20571;-78
2022/03/17 00:17:02;;;;;;;347.50;53.03;;;4.80;99.90;;;3.26;100.00;102642.31;4912187;28;20034;-79
2022/03/17 00:19:36;;;;;;;278.60;44.47;;;4.70;99.90;;;3.07;100.00;102635.09;4919285;28;20027;-79
2022/03/17 00:22:06;;;;;;;403.60;47.13;;;4.70;99.90;;;3.12;100.00;102635.16;4925279;28;20026;-78
2022/03/17 00:24:41;;;;;;;352.52;45.47;;;4.70;99.90;;;3.13;100.00;102636.91;4907268;28;20030;-79
2022/03/17 00:27:08;;;;;;;279.77;55.30;;;4.70;99.90;;;3.16;100.00;102643.03;4908291;28;20415;-79
2022/03/17 00:29:42;;;;;;;452.55;59.50;;;4.70;99.90;;;3.18;100.00;102633.53;4934436;28;20042;-79
2022/03/17 00:32:09;;;;;;;336.25;57.25;;;4.80;99.90;;;3.26;100.00;102631.91;4908983;28;20041;-79
2022/03/17 00:35:35;;;;;;;403.90;51.72;;;4.70;99.90;;;3.09;100.00;102628.19;4888923;28;20057;-79
2022/03/17 00:37:26;;;;;;;412.42;56.03;;;4.70;99.90;;;3.16;100.00;102617.00;4900821;28;20027;-78
2022/03/17 00:39:53;;;;;;;289.60;56.75;;;4.70;99.90;;;3.08;100.00;102618.63;4967359;28;20698;-79
2022/03/17 00:42:20;;;;;;;379.75;59.10;;;4.70;99.90;;;3.13;100.00;102616.06;4922882;28;20030;-79
2022/03/17 00:44:47;;;;;;;414.98;53.55;;;4.70;99.90;;;3.06;100.00;102613.38;4909782;28;20054;-79
2022/03/17 00:47:22;;;;;;;277.33;41.33;;;4.70;99.90;;;3.00;100.00;102608.13;4893029;28;20034;-79
2022/03/17 00:49:48;;;;;;;349.58;60.20;;;4.60;99.90;;;3.04;100.00;102606.41;4876077;28;20042;-79
2022/03/17 00:52:15;;;;;;;386.45;60.22;;;4.70;99.90;;;3.12;100.00;102607.41;4885635;28;20030;-79
2022/03/17 00:54:44;;;;;;;544.42;64.72;;;4.70;99.90;;;3.11;100.00;102608.28;4873189;28;20028;-78
2022/03/17 00:57:12;;;;;;;386.48;55.47;;;4.70;99.90;;;3.06;100.00;102599.50;4883966;29;20038;-78
2022/03/17 00:59:40;;;;;;;396.02;57.05;;;4.80;99.90;;;3.18;100.00;102602.28;4903485;28;20030;-79
2022/03/17 01:02:07;;;;;;;326.38;52.85;;;4.80;99.90;;;3.20;100.00;102603.19;4902581;28;20030;-78
2022/03/17 01:04:35;;;;;;;372.15;60.80;;;4.80;99.90;;;3.33;100.00;102604.22;4862710;28;20062;-78
2022/03/17 01:07:01;;;;;;;276.95;56.70;;;4.80;99.90;;;3.27;100.00;102606.75;4860565;28;20031;-79
2022/03/17 01:09:28;;;;;;;366.48;59.15;;;4.80;99.90;;;3.22;100.00;102605.81;4903130;28;20111;-78
2022/03/17 01:11:56;;;;;;;273.30;58.33;;;4.80;99.90;;;3.26;100.00;102612.78;4876765;28;20141;-78
2022/03/17 01:14:22;;;;;;;396.10;64.57;;;4.80;99.90;;;3.27;100.00;102614.56;4887956;28;20057;-78
2022/03/17 01:16:54;;;;;;;251.48;43.30;;;4.90;99.90;;;3.21;100.00;102614.47;4921328;28;20034;-79
2022/03/17 01:19:21;;;;;;;285.58;57.50;;;4.80;99.90;;;3.23;100.00;102613.63;4875275;28;20097;-78
2022/03/17 01:21:49;;;;;;;362.63;61.97;;;4.90;99.90;;;3.28;100.00;102616.28;4891356;28;20019;-78
2022/03/17 01:24:17;;;;;;;301.52;53.17;;;4.80;99.90;;;3.20;100.00;102617.94;4875192;28;20030;-79
2022/03/17 01:26:44;;;;;;;193.65;43.03;;;4.80;99.90;;;3.11;100.00;102620.38;4883431;28;20043;-79
2022/03/17 01:29:11;;;;;;;228.23;49.95;;;4.80;99.90;;;3.22;100.00;102616.22;4894656;28;20472;-79
2022/03/17 01:31:37;;;;;;;265.38;61.13;;;4.80;99.90;;;3.23;100.00;102620.56;4900040;28;20039;-78
2022/03/17 01:34:03;;;;;;;295.85;61.95;;;4.90;99.90;;;3.37;100.00;102623.34;4876431;28;20121;-79
2022/03/17 01:36:30;;;;;;;313.45;63.67;;;4.90;99.90;;;3.45;100.00;102611.31;4894395;28;20030;-79
2022/03/17 01:39:01;;;;;;;262.92;59.58;;;4.90;99.90;;;3.36;100.00;102614.66;4902531;28;20034;-78
2022/03/17 01:41:27;;;;;;;271.02;63.13;;;5.00;99.90;;;3.47;100.00;102604.41;4886127;29;20028;-79
2022/03/17 01:43:53;;;;;;;299.42;63.50;;;5.00;99.90;;;3.54;100.00;102602.75;4875482;29;20020;-79
2022/03/17 01:46:19;;;;;;;93.53;24.23;;;5.00;99.90;;;3.30;100.00;102609.38;4919969;28;20067;-79
2022/03/17 01:48:47;;;;;;;301.45;63.00;;;5.00;99.90;;;3.39;100.00;102612.13;4835681;28;20043;-79
2022/03/17 01:51:13;;;;;;;293.95;62.28;;;5.00;99.90;;;3.43;100.00;102613.03;4885263;28;20389;-79
2022/03/17 01:53:43;;;;;;;295.10;67.22;;;5.00;99.90;;;3.52;100.00;102607.06;4871732;28;20471;-80
2022/03/17 01:56:09;;;;;;;319.13;64.57;;;5.10;99.90;;;3.52;100.00;102609.66;4883075;28;20099;-79
2022/03/17 01:58:35;;;;;;;336.52;67.72;;;5.10;99.90;;;3.58;100.00;102604.53;4925483;28;20027;-78
2022/03/17 02:01:01;;;;;;;329.65;67.32;;;5.10;99.90;;;3.54;100.00;102615.78;4892371;28;20027;-78
2022/03/17 02:03:32;;;;;;;309.77;65.80;;;5.10;99.90;;;3.54;100.00;102613.16;4898232;28;20033;-78
2022/03/17 02:05:58;;;;;;;261.75;50.97;;;5.10;99.90;;;3.42;100.00;102609.56;4893466;28;20560;-79
2022/03/17 02:08:24;;;;;;;325.65;59.22;;;5.10;99.90;;;3.51;100.00;102594.91;4865354;28;20095;-78
2022/03/17 02:13:35;;;;;;;309.13;53.60;;;5.10;99.90;;;3.42;100.00;102580.91;4908256;28;20034;-78
2022/03/17 02:16:07;;;;;;;321.08;63.67;;;5.10;99.90;;;3.52;100.00;102576.69;4905595;28;20031;-79
2022/03/17 02:18:33;;;;;;;347.50;62.55;;;5.10;99.90;;;3.48;100.00;102570.56;4867741;28;20094;-79
2022/03/17 02:20:59;;;;;;;382.15;66.97;;;5.10;99.90;;;3.47;100.00;102570.53;4882297;28;20396;-78
2022/03/17 02:26:12;;;;;;;;;;;5.10;99.90;;;3.43;100.00;102567.00;4921682;28;20589;-79
2022/03/17 02:28:38;;;;;;;312.30;49.20;;;5.00;99.90;;;3.33;100.00;102566.91;4907514;28;20078;-78
2022/03/17 02:31:05;;;;;;;163.85;27.58;;;5.00;99.90;;;3.32;100.00;102575.56;4863147;28;20022;-80
2022/03/17 02:33:31;;;;;;;378.73;66.50;;;5.00;99.90;;;3.37;100.00;102573.88;4904171;28;20190;-78
2022/03/17 02:35:57;;;;;;;324.67;65.93;;;5.00;99.90;;;3.38;100.00;102568.69;4904364;28;20059;-79
2022/03/17 02:38:33;;;;;;;420.02;70.63;;;5.00;99.90;;;3.51;100.00;102569.72;4908965;28;20511;-79
2022/03/17 02:40:59;;;;;;;307.92;65.72;;;5.00;99.90;;;3.51;100.00;102571.47;4919487;28;20039;-78
2022/03/17 02:43:26;;;;;;;413.60;60.47;;;5.00;99.90;;;3.29;100.00;102561.63;4855268;28;20027;-79
2022/03/17 02:45:57;;;;;;;390.83;67.80;;;4.90;99.90;;;3.26;100.00;102555.50;4906985;28;20035;-78
2022/03/17 02:48:23;;;;;;;389.65;65.72;;;4.90;99.90;;;3.39;100.00;102552.25;4939876;28;20071;-78
2022/03/17 02:50:50;;;;;;;476.63;71.63;;;5.00;99.90;;;3.41;100.00;102550.53;4916642;28;20054;-79
2022/03/17 02:53:17;;;;;;;482.83;73.10;;;5.00;99.90;;;3.40;100.00;102548.75;4916118;28;20098;-79
2022/03/17 02:55:47;;;;;;;543.78;72.88;;;4.90;99.90;;;3.30;100.00;102554.69;4917875;28;20121;-79
2022/03/17 02:58:14;;;;;;;464.30;59.42;;;4.90;99.90;;;3.30;100.00;102552.09;4900994;28;20413;-79
2022/03/17 03:00:40;;;;;;;424.73;68.70;;;4.90;99.90;;;3.31;100.00;102546.06;4874907;28;20044;-79
2022/03/17 03:03:07;;;;;;;499.48;77.50;;;5.00;99.90;;;3.40;100.00;102547.91;4897337;28;20031;-79
2022/03/17 03:05:33;;;;;;;421.63;67.30;;;4.90;99.90;;;3.33;100.00;102538.28;4876232;28;20035;-79
2022/03/17 03:07:59;;;;;;;478.52;73.65;;;5.00;99.90;;;3.37;100.00;102551.34;4862138;28;20620;-78
2022/03/17 03:10:30;;;;;;;440.20;75.22;;;5.00;99.90;;;3.42;100.00;102557.47;4864328;28;20174;-78
2022/03/17 03:12:57;;;;;;;425.92;73.57;;;4.90;99.90;;;3.29;100.00;102558.19;4889953;28;20039;-79
2022/03/17 03:15:23;;;;;;;379.70;70.97;;;4.90;99.90;;;3.24;100.00;102562.44;4928890;28;20066;-79
2022/03/17 03:17:49;;;;;;;344.08;69.15;;;4.80;99.90;;;3.25;100.00;102549.44;4862657;28;20053;-79
2022/03/17 03:20:24;;;;;;;368.52;71.32;;;4.90;99.90;;;3.31;100.00;102548.66;4914683;28;20421;-79
2022/03/17 03:22:50;;;;;;;461.40;108.70;;;4.90;99.90;;;3.28;100.00;102538.19;4873786;28;22192;-79
2022/03/17 03:25:16;;;;;;;332.30;65.53;;;4.90;99.90;;;3.24;100.00;102534.69;4848542;28;20038;-78
2022/03/17 03:27:44;;;;;;;388.38;67.35;;;4.90;99.90;;;3.27;100.00;102534.72;4921289;28;20042;-78
2022/03/17 03:30:14;;;;;;;401.08;76.70;;;4.90;99.90;;;3.35;100.00;102537.44;4893595;28;20047;-79
2022/03/17 03:32:44;;;;;;;388.67;72.93;;;4.90;99.90;;;3.35;100.00;102540.03;4851752;28;20111;-78
2022/03/17 03:38:01;;;;;;;322.02;71.63;;;4.80;99.90;;;3.28;100.00;102536.47;4896093;28;20029;-78
2022/03/17 03:40:28;;;;;;;297.52;71.28;;;4.90;99.90;;;3.32;100.00;102532.16;4877537;28;20057;-79
2022/03/17 03:42:54;;;;;;;226.43;49.90;;;4.90;99.90;;;3.26;100.00;102529.47;4897026;28;20034;-78
2022/03/17 03:45:23;;;;;;;312.90;75.90;;;4.90;99.90;;;3.40;100.00;102530.53;4907667;28;20034;-79
2022/03/17 03:47:49;;;;;;;311.98;70.25;;;4.90;99.90;;;3.43;100.00;102537.50;4878860;28;20105;-79
2022/03/17 03:50:15;;;;;;;332.10;78.18;;;5.00;99.90;;;3.47;100.00;102540.16;4932903;28;20042;-79
2022/03/17 03:52:41;;;;;;;305.35;65.35;;;4.90;99.90;;;3.35;100.00;102541.72;4927435;28;20089;-78
2022/03/17 03:55:08;;;;;;;349.63;77.05;;;4.90;99.90;;;3.39;100.00;102527.91;4893647;28;20031;-78
2022/03/17 03:57:34;;;;;;;323.67;63.72;;;5.00;99.90;;;3.33;100.00;102523.50;4917779;23;20045;-78
2022/03/17 04:00:02;;;;;;;292.98;66.75;;;4.90;99.90;;;3.25;100.00;102527.75;4944247;28;20177;-79
2022/03/17 04:02:28;;;;;;;304.10;65.28;;;4.90;99.90;;;3.18;100.00;102532.00;4936379;28;20470;-78
2022/03/17 04:04:54;;;;;;;195.98;51.10;;;4.80;99.90;;;3.11;100.00;102524.06;4955734;28;20083;-79
2022/03/17 04:07:20;;;;;;;296.17;74.68;;;4.80;99.90;;;3.22;100.00;102536.41;4951591;28;20018;-79
2022/03/17 04:09:46;;;;;;;268.77;65.88;;;4.80;99.90;;;3.19;100.00;102536.34;4945962;28;20094;-79
2022/03/17 04:12:14;;;;;;;292.30;69.05;;;4.80;99.90;;;3.18;100.00;102544.16;4961007;28;20038;-78
2022/03/17 04:14:47;;;;;;;271.90;70.78;;;4.80;99.90;;;3.18;100.00;102545.00;4934164;28;20027;-78
2022/03/17 04:17:13;;;;;;;284.15;73.30;;;4.80;99.90;;;3.16;100.00;102541.50;4946421;28;20025;-79
2022/03/17 04:19:39;;;;;;;265.90;65.93;;;4.80;99.90;;;3.14;100.00;102544.97;4929268;28;21076;-79
2022/03/17 04:22:05;;;;;;;303.83;75.70;;;4.70;99.90;;;3.13;100.00;102549.25;4936263;28;20201;-78
2022/03/17 04:24:38;;;;;;;276.90;73.88;;;4.70;99.90;;;3.11;100.00;102543.19;4946165;28;20031;-79
2022/03/17 04:27:06;;;;;;;236.20;66.75;;;4.60;99.90;;;2.95;100.00;102533.41;4909036;28;20041;-78
2022/03/17 04:29:32;;;;;;;268.17;70.93;;;4.60;99.90;;;2.96;100.00;102530.84;4931128;28;20077;-78
2022/03/17 04:31:58;;;;;;;244.05;70.05;;;4.50;99.90;;;2.98;100.00;102528.25;4943203;28;20044;-78
2022/03/17 04:34:30;;;;;;;234.13;67.55;;;4.50;99.90;;;2.91;100.00;102529.88;4941536;28;20030;-78
2022/03/17 04:36:56;;;;;;;199.73;56.35;;;4.40;99.90;;;2.73;100.00;102527.03;4945327;28;20415;-80
2022/03/17 04:39:22;;;;;;;223.57;65.15;;;4.40;99.90;;;2.76;100.00;102517.53;4948130;28;20030;-79
2022/03/17 04:41:48;;;;;;;216.20;67.78;;;4.40;99.90;;;2.76;100.00;102527.94;4952928;28;20098;-79
2022/03/17 04:44:14;;;;;;;220.82;65.32;;;4.40;99.90;;;2.82;100.00;102519.34;4921425;28;20092;-79
2022/03/17 04:46:50;;;;;;;211.65;64.35;;;4.40;99.90;;;2.79;100.00;102517.59;4959986;28;20054;-79
2022/03/17 04:49:16;;;;;;;207.60;63.20;;;4.40;99.90;;;2.75;100.00;102514.94;4953335;28;20034;-79
2022/03/17 04:51:42;;;;;;;203.07;59.42;;;4.40;99.90;;;2.72;100.00;102513.16;4967818;28;20030;-78
2022/03/17 04:54:13;;;;;;;207.68;64.45;;;4.30;99.90;;;2.70;100.00;102503.56;4957403;28;20469;-78
2022/03/17 04:56:39;;;;;;;188.20;57.03;;;4.30;99.90;;;2.63;100.00;102508.66;4963060;28;20092;-79
2022/03/17 04:59:05;;;;;;;196.02;61.30;;;4.30;99.90;;;2.62;100.00;102495.66;4931969;28;20627;-78
2022/03/17 05:01:32;;;;;;;221.93;70.28;;;4.20;99.90;;;2.63;100.00;102492.19;4967671;28;20041;-79
2022/03/17 05:03:58;;;;;;;199.48;66.53;;;4.20;99.90;;;2.69;100.00;102491.44;4903394;28;20035;-79
2022/03/17 05:06:29;;;;;;;192.77;64.80;;;4.30;99.90;;;2.67;100.00;102501.81;4894086;28;20056;-78
2022/03/17 05:08:55;;;;;;;191.32;65.25;;;4.30;99.90;;;2.74;100.00;102505.38;4911759;28;20118;-78
2022/03/17 05:11:21;;;;;;;180.85;66.18;;;4.30;99.90;;;2.76;100.00;102498.44;4940380;28;21533;-79
2022/03/17 05:13:48;;;;;;;176.55;61.15;;;4.30;99.90;;;2.72;100.00;102494.97;4936043;28;20041;-78
2022/03/17 05:16:14;;;;;;;171.00;64.35;;;4.30;99.90;;;2.76;100.00;102499.31;4920689;28;20027;-78
2022/03/17 05:18:51;;;;;;;186.45;67.95;;;4.40;99.90;;;2.76;100.00;102501.94;4932387;23;20053;-78
2022/03/17 05:21:19;;;;;;;176.85;65.75;;;4.30;99.90;;;2.73;100.00;102501.03;4913255;28;20029;-78
2022/03/17 05:23:49;;;;;;;178.93;66.80;;;4.30;99.90;;;2.70;100.00;102501.88;4926346;28;20036;-79
2022/03/17 05:26:15;;;;;;;193.68;68.50;;;4.30;99.90;;;2.74;100.00;102500.16;4926035;28;20101;-78
2022/03/17 05:28:41;;;;;;;186.60;65.63;;;4.30;99.90;;;2.73;100.00;102506.22;4921265;28;20101;-78
2022/03/17 05:31:07;;;;;;;170.18;66.50;;;4.30;99.90;;;2.63;100.00;102498.28;4898302;28;20054;-79
2022/03/17 05:33:34;;;;;;;174.65;66.82;;;4.30;99.90;;;2.70;100.00;102504.47;4937112;28;20516;-78
2022/03/17 05:36:10;;;;;;;176.40;63.60;;;4.30;99.90;;;2.71;100.00;102515.72;4927054;28;20022;-78
2022/03/17 05:38:36;;;;;;;158.30;63.35;;;4.20;99.90;;;2.64;100.00;102504.38;4963059;23;20158;-78
2022/03/17 05:41:02;;;;;;;155.85;60.42;;;4.30;99.90;;;2.66;100.00;102505.28;4939271;28;20029;-79
2022/03/17 05:43:30;;;;;;;164.93;65.57;;;4.30;99.90;;;2.64;100.00;102517.38;4931642;28;20506;-78
2022/03/17 05:45:59;;;;;;;173.60;66.00;;;4.30;99.90;;;2.69;100.00;102526.09;4928528;28;20041;-78
2022/03/17 05:48:25;;;;;;;146.20;55.10;;;4.30;99.90;;;2.63;100.00;102505.22;4941973;28;20042;-78
2022/03/17 05:50:51;;;;;;;149.63;60.22;;;4.20;99.90;;;2.64;100.00;102507.84;4956978;28;20072;-78
2022/03/17 05:53:17;;;;;;;132.70;50.53;;;4.30;99.90;;;2.62;100.00;102508.66;4937101;28;20442;-78
2022/03/17 05:55:43;;;;;;;166.75;67.72;;;4.30;99.90;;;2.69;100.00;102514.84;4941079;28;20114;-78
2022/03/17 05:58:14;;;;;;;146.82;59.40;;;4.30;99.90;;;2.62;100.00;102513.88;4919149;28;20210;-78
2022/03/17 06:00:40;;;;;;;156.07;63.28;;;4.30;99.90;;;2.73;100.00;102507.09;4970746;28;20041;-78
2022/03/17 06:03:06;;;;;;;162.63;66.72;;;4.40;99.90;;;2.83;100.00;102514.19;4945871;28;20026;-78
2022/03/17 06:05:32;;;;;;;143.68;56.85;;;4.40;99.90;;;2.77;100.00;102521.03;4929599;28;20033;-79
2022/03/17 06:08:02;;;;;;;146.63;55.85;;;4.40;99.90;;;2.79;100.00;102512.38;4944769;28;22329;-78
2022/03/17 06:10:33;;;;;;;158.13;66.25;;;4.40;99.90;;;2.86;100.00;102513.34;4933447;28;20084;-79
2022/03/17 06:13:02;;;;;;;165.75;65.75;;;4.40;99.90;;;2.84;100.00;102525.47;4931011;28;20036;-78
2022/03/17 06:15:34;;;;;;;168.60;65.63;;;4.50;99.90;;;2.91;100.00;102522.09;4937753;28;20064;-78
2022/03/17 06:18:03;;;;;;;131.55;52.33;;;4.50;99.90;;;2.90;100.00;102522.94;4959665;28;21429;-78
2022/03/17 06:20:36;;;;;;;156.40;65.15;;;4.50;99.90;;;2.98;100.00;102523.94;4964271;28;20089;-78
2022/03/17 06:23:07;;;;;;;161.38;68.55;;;4.60;99.90;;;3.07;100.00;102513.63;4940469;28;20021;-78
2022/03/17 06:25:43;;;;;;;153.20;63.95;;;4.60;99.90;;;3.02;100.00;102528.34;4957015;28;20033;-78
2022/03/17 06:28:13;;;;;;;155.52;66.63;;;4.60;99.90;;;3.08;100.00;102524.91;4967188;28;20072;-78
2022/03/17 06:30:39;;;;;;;138.15;53.45;;;4.60;99.90;;;3.11;100.00;102524.06;4925298;28;20574;-78
2022/03/17 06:33:09;;;;;;;144.27;61.35;;;4.60;99.90;;;3.03;100.00;102529.19;4923352;28;20028;-79
2022/03/17 06:35:35;;;;;;;152.25;65.90;;;4.70;99.90;;;3.18;100.00;102524.19;4939134;28;20466;-78
2022/03/17 06:38:04;;;;;;;158.55;65.25;;;4.70;99.90;;;3.24;100.00;102523.38;4938378;28;20034;-79
2022/03/17 06:40:53;;;;;;;147.10;64.55;;;4.70;99.90;;;3.15;100.00;102518.06;4956517;28;20092;-79
2022/03/17 06:43:19;;;;;;;125.20;54.80;;;4.70;99.90;;;3.23;100.00;102514.69;4949864;28;20038;-79
2022/03/17 06:45:45;;;;;;;118.50;47.38;;;4.80;99.90;;;3.21;100.00;102508.59;4906372;28;20035;-78
2022/03/17 06:48:11;;;;;;;140.10;58.90;;;4.70;99.90;;;3.12;100.00;102505.88;4959066;28;20068;-78
2022/03/17 06:50:37;;;;;;;152.25;66.13;;;4.80;99.90;;;3.19;100.00;102510.31;4946925;28;20444;-77
2022/03/17 06:53:09;;;;;;;201.82;82.35;;;4.80;99.90;;;3.30;100.00;102510.44;4912937;28;20033;-78
2022/03/17 06:55:35;;;;;;;156.43;68.47;;;4.80;99.90;;;3.24;100.00;102499.94;4961701;28;20081;-78
2022/03/17 06:58:02;;;;;;;162.70;72.40;;;4.80;99.90;;;3.36;100.00;102500.09;4932480;28;20019;-78
2022/03/17 07:00:28;;;;;;;167.18;74.05;;;4.90;99.90;;;3.47;100.00;102497.63;4937255;28;20516;-78
2022/03/17 07:02:54;;;;;;;123.88;54.50;;;4.90;99.90;;;3.40;100.00;102496.69;4967075;28;20098;-78
2022/03/17 07:05:23;;;;;;;148.85;68.20;;;5.00;99.90;;;3.44;100.00;102503.66;4934076;28;20247;-78
2022/03/17 07:07:49;;;;;;;143.30;63.72;;;5.00;99.90;;;3.46;100.00;102496.75;4948972;28;20033;-77
2022/03/17 07:10:15;;;;;;;148.27;67.10;;;5.00;99.90;;;3.49;100.00;102494.16;4907761;28;20057;-78
2022/03/17 07:12:43;;;;;;;148.02;66.85;;;5.10;99.90;;;3.56;100.00;102492.50;4948076;28;20375;-78
2022/03/17 07:15:12;;;;;;;137.25;65.35;;;5.00;99.90;;;3.52;100.00;102490.75;4971238;28;20091;-78
2022/03/17 07:17:42;;;;;;;143.00;63.40;;;5.10;99.90;;;3.60;100.00;102485.59;4938256;28;20084;-78
2022/03/17 07:20:12;;;;;;;79.50;34.00;;;5.10;99.90;;;3.47;100.00;102480.25;4917433;28;20146;-79
2022/03/17 07:22:43;;;;;;;136.55;62.75;;;5.10;99.90;;;3.63;100.00;102483.06;4971136;28;20025;-79
2022/03/17 07:25:11;;;;;;;135.52;64.13;;;5.20;99.90;;;3.73;100.00;102481.38;4920860;28;20026;-78
2022/03/17 07:27:43;;;;;;;97.30;45.13;;;5.20;99.90;;;3.63;100.00;102483.91;4925804;28;20030;-78
2022/03/17 07:30:18;;;;;;;136.68;62.25;;;5.30;99.90;;;3.76;100.00;102492.72;4959786;28;20531;-78
2022/03/17 07:32:54;;;;;;;138.43;64.43;;;5.30;99.90;;;3.84;100.00;102493.66;4973755;28;20050;-78
2022/03/17 07:35:25;;;;;;;;;;;5.30;99.90;;;3.82;100.00;102499.72;4974343;28;20037;-78
2022/03/17 07:37:59;;;;;;;112.43;49.65;;;5.40;99.90;;;3.86;100.00;102510.19;4958653;28;20314;-78
2022/03/17 07:40:26;;;;;;;137.93;64.13;;;5.40;99.90;;;3.92;100.00;102506.78;4956045;28;20036;-78
2022/03/17 07:42:52;;;;;;;136.48;65.25;;;5.40;99.90;;;4.00;100.00;102507.72;4930251;28;20025;-79
2022/03/17 07:45:19;;;;;;;119.50;55.20;;;5.40;99.90;;;3.95;100.00;102505.91;4931447;28;20033;-79
2022/03/17 07:47:50;;;;;;;134.82;62.97;;;5.50;99.90;;;4.07;100.00;102501.69;4934514;28;20568;-78
2022/03/17 07:50:18;;;;;;;136.80;63.78;;;5.50;99.90;;;4.11;100.00;102498.25;4998431;28;20534;-79
2022/03/17 07:52:45;;;;;;;89.78;40.55;;;5.50;99.90;;;3.92;100.00;102492.88;4943029;28;20510;-79
2022/03/17 07:55:17;;;;;;;132.40;61.92;;;5.60;99.90;;;4.11;100.00;102497.38;4956415;28;22171;-79
2022/03/17 07:57:43;;;;;;;132.45;63.30;;;5.50;99.90;;;4.06;100.00;102504.28;4959608;28;20043;-78
2022/03/17 08:00:11;;;;;;;130.70;62.33;;;5.60;99.90;;;4.13;100.00;102515.66;4946999;28;20029;-77
2022/03/17 08:02:40;;;;;;;136.63;64.65;;;5.60;99.90;;;4.15;100.00;102511.31;4928342;28;20030;-77
2022/03/17 08:05:13;;;;;;;131.57;62.30;;;5.70;99.90;;;4.22;100.00;102506.16;4956740;28;20021;-79
2022/03/17 08:07:40;;;;;;;140.23;65.57;;;5.70;99.90;;;4.25;100.00;102500.09;4943768;28;20160;-78
2022/03/17 08:10:13;;;;;;;135.95;67.13;;;5.70;99.90;;;4.36;100.00;102502.78;4923707;28;20050;-77
2022/03/17 08:12:39;;;;;;;129.68;65.00;;;5.80;99.90;;;4.28;100.00;102502.75;4880450;28;20025;-77
2022/03/17 08:15:06;;;;;;;137.25;67.85;;;5.80;99.90;;;4.38;100.00;102486.28;4957153;28;20108;-78
2022/03/17 08:17:33;;;;;;;107.13;50.80;;;5.80;99.90;;;4.28;100.00;102495.78;4942799;28;20026;-78
2022/03/17 08:19:59;;;;;;;99.40;44.42;;;5.80;99.90;;;4.31;100.00;102494.94;4957357;28;20418;-78
2022/03/17 08:22:30;;;;;;;130.20;63.03;;;5.90;99.90;;;4.36;100.00;102493.22;4949603;28;20037;-78
2022/03/17 08:24:56;;;;;;;132.60;63.85;;;5.90;99.90;;;4.48;100.00;102497.66;4948054;28;20032;-78
2022/03/17 08:27:22;;;;;;;95.97;42.67;;;6.00;99.90;;;4.50;100.00;102495.94;4953075;28;20034;-78
2022/03/17 08:29:48;;;;;;;123.38;55.38;;;6.00;99.90;;;4.44;100.00;102494.16;4997383;28;20041;-79
2022/03/17 08:32:18;;;;;;;132.32;62.28;;;6.00;99.90;;;4.47;100.00;102486.38;4955188;28;20674;-78
2022/03/17 08:34:46;;;;;;;128.15;62.83;;;6.00;99.90;;;4.59;100.00;102487.31;4927777;28;20081;-78
2022/03/17 08:37:12;;;;;;;136.00;66.88;;;6.10;99.90;;;4.64;100.00;102493.41;4947568;28;20042;-78
2022/03/17 08:39:38;;;;;;;118.55;53.30;;;6.10;99.90;;;4.49;100.00;102484.66;4921141;28;20460;-78
2022/03/17 08:42:05;;;;;;;90.45;41.58;;;6.10;99.90;;;4.52;100.00;102483.78;4945044;28;20026;-78
2022/03/17 08:44:31;;;;;;;126.75;64.68;;;6.10;99.90;;;4.66;100.00;102474.28;4929160;28;20018;-78
2022/03/17 08:49:47;;;;;;;128.77;64.85;;;6.20;99.90;;;4.86;100.00;102471.81;4958405;28;20054;-78
2022/03/17 08:52:13;;;;;;;134.57;67.07;;;6.30;99.90;;;4.89;100.00;102477.03;4939146;28;20037;-79
2022/03/17 08:54:46;;;;;;;128.38;62.30;;;6.30;99.90;;;4.88;100.00;102474.41;4950057;28;20056;-78
2022/03/17 08:57:13;;;;;;;129.00;64.65;;;6.40;99.90;;;4.98;100.00;102477.94;4924395;28;20028;-78
2022/03/17 08:59:39;;;;;;;119.55;61.63;;;6.40;99.90;;;5.01;100.00;102476.25;4945116;28;20461;-78
2022/03/17 09:02:12;;;;;;;124.85;60.35;;;6.40;99.90;;;4.99;100.00;102480.59;4934894;28;20033;-79
2022/03/17 09:04:39;;;;;;;126.20;64.78;;;6.50;99.90;;;5.11;100.00;102474.53;4921913;28;20706;-78
2022/03/17 09:07:06;;;;;;;130.48;66.40;;;6.60;99.90;;;5.26;100.00;102481.56;4922630;28;20062;-78
2022/03/17 09:09:41;;;;;;;124.88;65.70;;;6.60;99.90;;;5.30;100.00;102478.09;4934839;28;20026;-78
2022/03/17 09:12:09;;;;;;;127.70;62.75;;;6.70;99.90;;;5.26;100.00;102478.94;4904430;28;20029;-78
2022/03/17 09:14:44;;;;;;;125.65;66.60;;;6.80;99.90;;;5.42;100.00;102478.13;4940988;28;20597;-78
2022/03/17 09:17:10;;;;;;;122.95;64.70;;;6.90;99.90;;;5.40;100.00;102477.25;4941605;28;20108;-78
2022/03/17 09:19:37;;;;;;;112.45;57.88;;;6.90;99.90;;;5.50;100.00;102472.91;4931919;28;20425;-78
2022/03/17 09:22:04;;;;;;;135.45;65.55;;;7.00;99.90;;;5.58;100.00;102467.72;4953755;28;20017;-78
2022/03/17 09:24:30;;;;;;;126.55;64.90;;;7.00;99.90;;;5.64;100.00;102462.50;4942241;28;20080;-78
2022/03/17 09:27:01;;;;;;;121.95;61.38;;;7.10;99.90;;;5.71;100.00;102466.84;4953614;28;20117;-78
2022/03/17 09:29:28;;;;;;;100.13;51.08;;;7.10;99.90;;;5.65;100.00;102461.63;4944979;28;20044;-78
2022/03/17 09:31:58;;;;;;;122.47;65.15;;;7.10;99.90;;;5.67;100.00;102459.88;4928784;28;20056;-78
2022/03/17 09:34:24;;;;;;;107.55;53.45;;;7.10;99.90;;;5.72;100.00;102469.50;4918867;28;20507;-78
2022/03/17 09:36:53;;;;;;;124.97;64.82;;;7.20;99.90;;;5.91;100.00;102470.34;4927963;28;20057;-78
2022/03/17 09:42:04;;;;;;;117.03;61.75;;;7.20;99.90;;;5.95;100.00;102473.88;4961384;28;20032;-78
2022/03/17 09:44:30;;;;;;;70.60;31.95;;;7.40;99.90;;;5.87;100.00;102479.06;4909918;28;20048;-77
2022/03/17 09:47:03;;;;;;;114.15;59.60;;;7.40;99.90;;;6.11;100.00;102478.25;4909599;28;20509;-78
2022/03/17 09:49:30;;;;;;;112.22;60.15;;;7.50;99.90;;;6.21;99.64;102481.72;4926642;28;20078;-78
2022/03/17 09:51:58;;;;;;;112.28;61.67;;;7.60;99.90;;;6.29;99.20;102476.50;4950126;28;20079;-78
2022/03/17 09:54:33;;;;;;;115.57;61.88;;;7.60;99.90;;;6.26;98.43;102477.34;4955489;28;20060;-78
2022/03/17 09:57:00;;;;;;;115.93;60.45;;;7.60;99.90;;;6.35;97.84;102487.84;4991432;28;20042;-78
2022/03/17 09:59:26;;;;;;;121.38;62.00;;;7.60;99.90;;;6.28;97.75;102488.69;4942216;28;20030;-78
2022/03/17 10:01:58;;;;;;;114.60;62.95;;;7.70;99.90;;;6.29;97.93;102481.75;4938420;28;20022;-78
2022/03/17 10:04:24;;;;;;;119.35;62.13;;;7.70;99.90;;;6.32;97.80;102487.81;4908389;28;20543;-78
2022/03/17 10:06:51;;;;;;;122.35;64.47;;;7.60;99.90;;;6.30;97.60;102484.34;5006478;28;20026;-78
2022/03/17 10:09:17;;;;;;;122.93;65.00;;;7.80;99.90;;;6.39;97.46;102472.13;4972323;28;20163;-78
2022/03/17 10:11:43;;;;;;;114.70;60.03;;;7.80;99.90;;;6.33;97.09;102489.56;4955919;28;20052;-77
2022/03/17 10:14:13;;;;;;;122.03;65.20;;;7.80;99.90;;;6.47;96.85;102491.31;4906950;28;20026;-78
2022/03/17 10:16:39;;;;;;;104.20;51.75;;;7.90;99.90;;;6.45;96.68;102490.44;4958400;28;20075;-78
2022/03/17 10:19:13;;;;;;;119.10;62.63;;;7.90;99.90;;;6.40;97.00;102484.34;4909239;28;20402;-78